createdAt,value
2022-12-13T00:01:20.677Z,-7.30
2022-12-13T00:03:48.583Z,-7.32
2022-12-13T00:06:16.154Z,-7.20
2022-12-13T00:08:43.677Z,-7.20
2022-12-13T00:11:13.817Z,-7.44
2022-12-13T00:13:43.683Z,-7.31
2022-12-13T00:16:13.468Z,-7.30
2022-12-13T00:18:41.285Z,-7.12
2022-12-13T00:21:09.941Z,-7.16
2022-12-13T00:23:37.468Z,-7.34
2022-12-13T00:26:05.303Z,-7.80
2022-12-13T00:28:33.355Z,-7.60
2022-12-13T00:31:26.056Z,-7.29
2022-12-13T00:33:50.486Z,-6.99
2022-12-13T00:36:18.432Z,-6.92
2022-12-13T00:38:46.013Z,-7.02
2022-12-13T00:41:15.204Z,-7.14
2022-12-13T00:43:43.057Z,-7.08
2022-12-13T00:46:15.708Z,-7.33
2022-12-13T00:48:43.652Z,-7.34
2022-12-13T00:51:12.532Z,-7.28
2022-12-13T00:53:40.219Z,-7.13
2022-12-13T00:56:12.246Z,-7.17
2022-12-13T00:58:39.993Z,-7.18
2022-12-13T01:01:09.330Z,-7.19
2022-12-13T01:03:39.225Z,-7.21
2022-12-13T01:06:15.299Z,-7.27
2022-12-13T01:08:44.130Z,-7.32
2022-12-13T01:11:12.332Z,-7.33
2022-12-13T01:13:40.319Z,-7.33
2022-12-13T01:16:10.625Z,-7.40
2022-12-13T01:18:42.383Z,-7.36
2022-12-13T01:21:14.775Z,-7.15
2022-12-13T01:23:42.789Z,-7.08
2022-12-13T01:26:12.324Z,-7.06
2022-12-13T01:28:40.010Z,-7.14
2022-12-13T01:31:09.082Z,-7.11
2022-12-13T01:33:36.926Z,-7.11
2022-12-13T01:36:08.541Z,-7.31
2022-12-13T01:38:37.817Z,-7.48
2022-12-13T01:41:17.850Z,-7.29
2022-12-13T01:43:55.875Z,-7.27
2022-12-13T01:46:23.589Z,-7.30
2022-12-13T01:48:56.334Z,-7.31
2022-12-13T01:51:29.030Z,-7.31
2022-12-13T01:54:00.763Z,-7.24
2022-12-13T01:56:32.834Z,-7.15
2022-12-13T01:59:02.978Z,-6.98
2022-12-13T02:01:30.778Z,-7.00
2022-12-13T02:03:58.279Z,-6.98
2022-12-13T02:06:33.745Z,-7.03
2022-12-13T02:09:02.430Z,-7.06
2022-12-13T02:11:30.265Z,-7.18
2022-12-13T02:13:57.782Z,-7.33
2022-12-13T02:16:39.423Z,-7.39
2022-12-13T02:19:39.458Z,-7.45
2022-12-13T02:22:23.652Z,-7.44
2022-12-13T02:25:10.894Z,-7.41
2022-12-13T02:28:00.711Z,-7.41
2022-12-13T02:30:39.001Z,-7.43
2022-12-13T02:33:26.479Z,-7.55
2022-12-13T02:36:05.738Z,-7.40
2022-12-13T02:38:40.258Z,-7.42
2022-12-13T02:41:16.754Z,-7.34
2022-12-13T02:43:49.601Z,-7.30
2022-12-13T02:46:24.314Z,-7.46
2022-12-13T02:48:55.819Z,-7.62
2022-12-13T02:51:24.800Z,-7.44
2022-12-13T02:53:52.304Z,-7.54
2022-12-13T02:56:20.472Z,-7.67
2022-12-13T02:58:50.670Z,-7.42
2022-12-13T03:01:40.022Z,-7.21
2022-12-13T03:04:14.109Z,-7.20
2022-12-13T03:06:51.355Z,-7.15
2022-12-13T03:09:29.901Z,-7.21
2022-12-13T03:12:29.050Z,-7.19
2022-12-13T03:15:04.369Z,-7.39
2022-12-13T03:17:40.508Z,-7.01
2022-12-13T03:20:22.522Z,-7.00
2022-12-13T03:22:50.555Z,-6.64
2022-12-13T03:25:31.614Z,-6.39
2022-12-13T03:28:01.459Z,-6.42
2022-12-13T03:30:31.476Z,-6.08
2022-12-13T03:33:00.693Z,-5.67
2022-12-13T03:35:34.681Z,-5.49
2022-12-13T03:38:22.794Z,-5.29
2022-12-13T03:40:52.950Z,-5.42
2022-12-13T03:43:22.458Z,-5.40
2022-12-13T03:45:50.748Z,-5.74
2022-12-13T03:48:22.453Z,-5.56
2022-12-13T03:50:50.808Z,-5.43
2022-12-13T03:53:22.296Z,-5.66
2022-12-13T03:56:00.995Z,-5.54
2022-12-13T03:58:36.019Z,-5.82
2022-12-13T04:01:06.470Z,-5.20
2022-12-13T04:03:35.523Z,-5.04
2022-12-13T04:06:03.070Z,-4.63
2022-12-13T04:08:30.683Z,-4.21
2022-12-13T04:10:58.284Z,-4.62
2022-12-13T04:13:34.067Z,-5.76
2022-12-13T04:16:01.797Z,-4.93
2022-12-13T04:18:29.383Z,-5.03
2022-12-13T04:20:58.331Z,-4.62
2022-12-13T04:23:25.979Z,-4.45
2022-12-13T04:25:53.690Z,-4.10
2022-12-13T04:28:22.151Z,-3.88
2022-12-13T04:30:52.964Z,-4.16
2022-12-13T04:33:21.913Z,-3.87
2022-12-13T04:35:49.690Z,-3.95
2022-12-13T04:38:19.331Z,-3.54
2022-12-13T04:40:47.029Z,-3.42
2022-12-13T04:43:14.557Z,-3.68
2022-12-13T04:45:42.193Z,-3.73
2022-12-13T04:48:09.780Z,-3.93
2022-12-13T04:50:37.339Z,-4.13
2022-12-13T04:53:04.868Z,-4.29
2022-12-13T04:55:33.759Z,-4.16
2022-12-13T04:58:01.279Z,-3.78
2022-12-13T05:00:28.838Z,-3.51
2022-12-13T05:02:56.406Z,-3.33
2022-12-13T05:05:23.985Z,-3.76
2022-12-13T05:07:51.585Z,-3.48
2022-12-13T05:10:34.160Z,-3.31
2022-12-13T05:13:07.547Z,-4.02
2022-12-13T05:15:35.431Z,-4.14
2022-12-13T05:18:09.762Z,-4.02
2022-12-13T05:20:38.962Z,-4.32
2022-12-13T05:23:06.566Z,-4.00
2022-12-13T05:25:35.131Z,-3.77
2022-12-13T05:28:08.966Z,-4.21
2022-12-13T05:30:51.480Z,-4.15
2022-12-13T05:33:19.037Z,-4.17
2022-12-13T05:35:47.203Z,-4.49
2022-12-13T05:38:14.758Z,-4.92
2022-12-13T05:40:42.413Z,-5.06
2022-12-13T05:43:21.206Z,-4.99
2022-12-13T05:45:51.284Z,-4.87
2022-12-13T05:48:24.152Z,-4.31
2022-12-13T05:50:52.584Z,-4.83
2022-12-13T05:53:39.544Z,-6.14
2022-12-13T05:56:07.815Z,-5.87
2022-12-13T05:58:36.305Z,-5.35
2022-12-13T06:01:10.853Z,-5.23
2022-12-13T06:03:38.784Z,-4.82
2022-12-13T06:06:08.518Z,-4.59
2022-12-13T06:08:36.610Z,-4.93
2022-12-13T06:11:11.533Z,-4.57
2022-12-13T06:13:42.867Z,-4.79
2022-12-13T06:16:22.887Z,-4.85
2022-12-13T06:18:56.175Z,-4.83
2022-12-13T06:21:33.373Z,-5.18
2022-12-13T06:24:13.930Z,-5.25
2022-12-13T06:26:41.470Z,-4.96
2022-12-13T06:29:10.333Z,-4.38
2022-12-13T06:31:39.196Z,-4.85
2022-12-13T06:34:14.182Z,-4.94
2022-12-13T06:36:43.129Z,-4.90
2022-12-13T06:39:10.736Z,-4.61
2022-12-13T06:41:38.297Z,-4.36
2022-12-13T06:44:06.364Z,-4.45
2022-12-13T06:46:34.050Z,-4.84
2022-12-13T06:49:02.957Z,-4.85
2022-12-13T06:51:33.074Z,-4.76
2022-12-13T06:54:02.380Z,-5.22
2022-12-13T06:56:30.645Z,-6.07
2022-12-13T06:59:01.730Z,-5.79
2022-12-13T07:01:37.355Z,-5.73
2022-12-13T07:04:30.306Z,-5.48
2022-12-13T07:06:56.466Z,-5.18
2022-12-13T07:09:29.809Z,-5.38
2022-12-13T07:11:57.401Z,-5.38
2022-12-13T07:14:24.944Z,-5.03
2022-12-13T07:16:55.481Z,-4.61
2022-12-13T07:19:28.405Z,-4.39
2022-12-13T07:22:05.496Z,-4.27
2022-12-13T07:24:33.164Z,-4.33
2022-12-13T07:27:00.685Z,-4.34
2022-12-13T07:29:28.207Z,-4.60
2022-12-13T07:32:01.172Z,-5.01
2022-12-13T07:34:30.952Z,-4.79
2022-12-13T07:36:58.612Z,-4.63
2022-12-13T07:39:26.982Z,-4.55
2022-12-13T07:41:55.702Z,-4.40
2022-12-13T07:44:23.248Z,-4.43
2022-12-13T07:46:50.783Z,-4.49
2022-12-13T07:49:18.374Z,-4.53
2022-12-13T07:51:47.388Z,-4.58
2022-12-13T07:54:14.895Z,-4.61
2022-12-13T07:56:42.443Z,-4.44
2022-12-13T07:59:10.145Z,-4.34
2022-12-13T08:01:37.814Z,-4.37
2022-12-13T08:04:05.789Z,-4.71
2022-12-13T08:06:36.058Z,-4.91
2022-12-13T08:09:05.995Z,-4.73
2022-12-13T08:11:33.761Z,-4.32
2022-12-13T08:14:01.380Z,-4.44
2022-12-13T08:16:29.931Z,-4.76
2022-12-13T08:19:02.103Z,-4.57
2022-12-13T08:24:23.196Z,-4.62
2022-12-13T08:26:50.707Z,-4.80
2022-12-13T08:29:22.840Z,-4.38
2022-12-13T08:32:01.719Z,-4.57
2022-12-13T08:34:29.495Z,-4.10
2022-12-13T08:37:01.725Z,-3.17
2022-12-13T08:39:34.088Z,-2.85
2022-12-13T08:42:15.155Z,-3.32
2022-12-13T08:44:45.298Z,-3.15
2022-12-13T08:47:13.399Z,-3.58
2022-12-13T08:49:53.163Z,-4.33
2022-12-13T08:52:22.283Z,-5.07
2022-12-13T08:54:51.400Z,-4.91
2022-12-13T08:57:18.975Z,-4.86
2022-12-13T08:59:46.491Z,-4.31
2022-12-13T09:02:15.160Z,-3.14
2022-12-13T09:04:42.941Z,-2.96
2022-12-13T09:07:10.460Z,-2.29
2022-12-13T09:09:38.162Z,-1.60
2022-12-13T09:12:10.247Z,-1.16
2022-12-13T09:14:45.605Z,-1.24
2022-12-13T09:17:14.766Z,-2.11
2022-12-13T09:19:58.047Z,-1.74
2022-12-13T09:22:32.815Z,-1.95
2022-12-13T09:25:02.781Z,-2.93
2022-12-13T09:27:39.605Z,-2.51
2022-12-13T09:30:12.078Z,-2.58
2022-12-13T09:32:39.660Z,-1.66
2022-12-13T09:35:07.769Z,-1.63
2022-12-13T09:37:36.971Z,-0.99
2022-12-13T09:40:16.268Z,-1.21
2022-12-13T09:43:12.487Z,-1.42
2022-12-13T09:45:47.947Z,-1.70
2022-12-13T09:48:22.915Z,-1.14
2022-12-13T09:51:15.884Z,-0.32
2022-12-13T09:53:41.167Z,-0.18
2022-12-13T09:56:13.324Z,-0.40
2022-12-13T09:58:42.223Z,0.39
2022-12-13T10:01:12.960Z,0.30
2022-12-13T10:03:42.401Z,0.25
2022-12-13T10:06:22.721Z,0.33
2022-12-13T10:08:58.345Z,-0.51
2022-12-13T10:11:32.144Z,-0.57
2022-12-13T10:14:05.416Z,-1.10
2022-12-13T10:16:44.629Z,-1.28
2022-12-13T10:19:28.287Z,-1.14
2022-12-13T10:22:01.321Z,-1.00
2022-12-13T10:24:36.970Z,-1.16
2022-12-13T10:27:13.835Z,-2.04
2022-12-13T10:30:03.025Z,-0.90
2022-12-13T10:32:37.753Z,-1.53
2022-12-13T10:35:20.653Z,-0.70
2022-12-13T10:37:48.246Z,-0.56
2022-12-13T10:40:31.912Z,0.21
2022-12-13T10:43:13.997Z,-1.16
2022-12-13T10:45:44.222Z,-0.70
2022-12-13T10:48:21.714Z,-0.33
2022-12-13T10:51:01.829Z,0.15
2022-12-13T10:53:32.827Z,-0.11
2022-12-13T10:56:02.154Z,0.24
2022-12-13T10:58:38.912Z,-0.33
2022-12-13T11:01:13.052Z,0.31
2022-12-13T11:03:40.682Z,1.25
2022-12-13T11:06:13.994Z,2.21
2022-12-13T11:08:41.578Z,2.88
2022-12-13T11:11:10.938Z,1.90
2022-12-13T11:13:41.948Z,0.05
2022-12-13T11:16:22.476Z,1.41
2022-12-13T11:18:54.285Z,1.76
2022-12-13T11:21:26.410Z,1.66
2022-12-13T11:23:55.672Z,2.01
2022-12-13T11:26:26.647Z,1.69
2022-12-13T11:29:18.667Z,0.97
2022-12-13T11:32:01.409Z,0.67
2022-12-13T11:34:40.601Z,0.28
2022-12-13T11:37:17.990Z,0.74
2022-12-13T11:39:51.649Z,0.27
2022-12-13T11:42:26.736Z,0.27
2022-12-13T11:45:02.406Z,0.62
2022-12-13T11:47:38.184Z,0.67
2022-12-13T11:50:20.504Z,0.72
2022-12-13T11:53:06.770Z,-0.07
2022-12-13T11:55:39.933Z,0.33
2022-12-13T11:58:16.474Z,0.31
2022-12-13T12:00:50.064Z,0.57
2022-12-13T12:03:21.793Z,0.45
2022-12-13T12:05:56.168Z,0.49
2022-12-13T12:08:34.178Z,0.51
2022-12-13T12:11:08.411Z,0.43
2022-12-13T12:13:51.481Z,0.84
2022-12-13T12:16:30.055Z,0.39
2022-12-13T12:19:01.625Z,0.04
2022-12-13T12:22:12.181Z,-0.13
2022-12-13T12:24:36.744Z,0.03
2022-12-13T12:27:22.467Z,-0.36
2022-12-13T12:30:23.114Z,0.23
2022-12-13T12:32:54.997Z,0.33
2022-12-13T12:35:38.143Z,0.01
2022-12-13T12:38:31.998Z,0.20
2022-12-13T12:41:23.737Z,0.25
2022-12-13T12:44:01.746Z,0.05
2022-12-13T12:47:01.436Z,-0.04
2022-12-13T12:49:52.696Z,0.07
2022-12-13T12:52:29.562Z,-0.04
2022-12-13T12:55:03.990Z,0.29
2022-12-13T12:57:40.597Z,0.50
2022-12-13T13:00:12.897Z,0.86
2022-12-13T13:02:44.649Z,0.00
2022-12-13T13:05:19.625Z,-0.08
2022-12-13T13:07:52.861Z,-0.40
2022-12-13T13:10:26.643Z,-0.50
2022-12-13T13:13:11.504Z,-0.43
2022-12-13T13:15:56.773Z,-0.25
2022-12-13T13:18:44.839Z,-0.22
2022-12-13T13:21:50.036Z,-0.27
2022-12-13T13:24:24.657Z,0.08
2022-12-13T13:26:55.096Z,-0.14
2022-12-13T13:29:35.422Z,-0.39
2022-12-13T13:32:06.773Z,-0.25
2022-12-13T13:34:36.281Z,-0.18
2022-12-13T13:37:04.711Z,-0.02
2022-12-13T13:39:56.664Z,-0.11
2022-12-13T13:42:25.559Z,-0.37
2022-12-13T13:45:12.462Z,-0.35
2022-12-13T13:47:44.480Z,-0.21
2022-12-13T13:51:10.008Z,-1.24
2022-12-13T13:54:07.601Z,-1.30
2022-12-13T13:57:33.164Z,-1.29
2022-12-13T14:00:20.416Z,-1.16
2022-12-13T14:03:34.027Z,-1.36
2022-12-13T14:06:42.421Z,-1.51
2022-12-13T14:09:58.076Z,-0.90
2022-12-13T14:13:00.952Z,-0.89
2022-12-13T14:16:00.397Z,-1.19
2022-12-13T14:19:01.199Z,-0.43
2022-12-13T14:21:39.584Z,-0.43
2022-12-13T14:24:29.182Z,-0.43
2022-12-13T14:27:13.368Z,-1.01
2022-12-13T14:29:48.169Z,-1.06
2022-12-13T14:32:26.755Z,-0.92
2022-12-13T14:34:56.166Z,-0.88
2022-12-13T14:37:31.334Z,-0.68
2022-12-13T14:40:00.195Z,-0.56
2022-12-13T14:42:30.204Z,-0.52
2022-12-13T14:45:14.203Z,-0.63
2022-12-13T14:47:44.028Z,-0.73
2022-12-13T14:50:17.861Z,-1.09
2022-12-13T14:52:46.410Z,-1.27
2022-12-13T14:55:24.943Z,-1.17
2022-12-13T14:57:54.300Z,-1.27
2022-12-13T15:00:25.635Z,-1.32
2022-12-13T15:02:56.637Z,-1.52
2022-12-13T15:05:28.403Z,-1.62
2022-12-13T15:07:57.380Z,-2.10
2022-12-13T15:10:40.614Z,-2.08
2022-12-13T15:13:08.548Z,-2.15
2022-12-13T15:15:38.175Z,-2.23
2022-12-13T15:18:16.582Z,-2.17
2022-12-13T15:20:44.174Z,-2.55
2022-12-13T15:23:19.745Z,-3.09
2022-12-13T15:25:50.634Z,-2.76
2022-12-13T15:28:21.872Z,-2.53
2022-12-13T15:30:50.319Z,-2.43
2022-12-13T15:33:26.388Z,-2.44
2022-12-13T15:36:08.804Z,-2.53
2022-12-13T15:38:38.530Z,-2.77
2022-12-13T15:41:06.334Z,-2.84
2022-12-13T15:43:38.097Z,-3.07
2022-12-13T15:46:07.897Z,-3.08
2022-12-13T15:48:39.832Z,-3.15
2022-12-13T15:51:12.863Z,-3.08
2022-12-13T15:53:41.949Z,-3.17
2022-12-13T15:56:32.313Z,-3.12
2022-12-13T15:59:01.196Z,-3.31
2022-12-13T16:01:31.325Z,-3.34
2022-12-13T16:04:03.527Z,-3.39
2022-12-13T16:06:33.690Z,-3.60
2022-12-13T16:09:03.860Z,-3.58
2022-12-13T16:11:34.494Z,-3.56
2022-12-13T16:14:27.205Z,-3.58
2022-12-13T16:16:55.147Z,-3.64
2022-12-13T16:19:24.092Z,-3.57
2022-12-13T16:21:51.612Z,-3.50
2022-12-13T16:24:19.200Z,-3.50
2022-12-13T16:26:48.102Z,-3.43
2022-12-13T16:29:19.303Z,-3.34
2022-12-13T16:31:47.334Z,-3.28
2022-12-13T16:34:17.404Z,-3.21
2022-12-13T16:36:47.654Z,-3.07
2022-12-13T16:39:15.622Z,-3.12
2022-12-13T16:41:45.744Z,-3.19
2022-12-13T16:44:22.671Z,-3.19
2022-12-13T16:47:11.732Z,-3.18
2022-12-13T16:49:38.502Z,-3.15
2022-12-13T16:52:07.684Z,-3.07
2022-12-13T16:54:35.536Z,-3.08
2022-12-13T16:57:03.072Z,-3.18
2022-12-13T16:59:30.616Z,-3.31
2022-12-13T17:01:58.635Z,-3.15
2022-12-13T17:04:27.377Z,-3.09
2022-12-13T17:06:55.555Z,-3.10
2022-12-13T17:09:25.561Z,-2.98
2022-12-13T17:11:53.351Z,-3.07
2022-12-13T17:14:20.868Z,-3.32
2022-12-13T17:16:48.431Z,-3.18
2022-12-13T17:19:17.366Z,-3.13
2022-12-13T17:21:44.934Z,-3.38
2022-12-13T17:24:12.516Z,-3.37
2022-12-13T17:26:54.874Z,-3.35
2022-12-13T17:29:23.156Z,-3.25
2022-12-13T17:31:50.680Z,-3.28
2022-12-13T17:34:18.196Z,-3.32
2022-12-13T17:36:45.936Z,-2.72
2022-12-13T17:39:13.512Z,-3.37
2022-12-13T17:41:42.432Z,-3.58
2022-12-13T17:44:22.129Z,-3.34
2022-12-13T17:46:54.924Z,-3.39
2022-12-13T17:49:23.288Z,-3.08
2022-12-13T17:51:52.699Z,-3.39
2022-12-13T17:54:20.563Z,-3.83
2022-12-13T17:56:49.438Z,-3.93
2022-12-13T17:59:17.557Z,-3.24
2022-12-13T18:01:45.482Z,-3.21
2022-12-13T18:04:13.508Z,-2.80
2022-12-13T18:06:41.687Z,-2.45
2022-12-13T18:09:09.890Z,-2.58
2022-12-13T18:11:37.460Z,-2.53
2022-12-13T18:14:08.246Z,-2.44
2022-12-13T18:16:38.332Z,-2.42
2022-12-13T18:19:07.836Z,-2.54
2022-12-13T18:21:36.749Z,-2.52
2022-12-13T18:24:05.589Z,-2.64
2022-12-13T18:26:33.503Z,-2.91
2022-12-13T18:29:01.003Z,-2.79
2022-12-13T18:31:29.978Z,-2.76
2022-12-13T18:33:57.662Z,-3.90
2022-12-13T18:36:26.543Z,-4.13
2022-12-13T18:38:54.209Z,-4.08
2022-12-13T18:41:23.537Z,-4.07
2022-12-13T18:43:55.857Z,-3.52
2022-12-13T18:46:26.983Z,-3.44
2022-12-13T18:48:56.615Z,-3.39
2022-12-13T18:51:24.785Z,-3.01
2022-12-13T18:53:53.097Z,-3.11
2022-12-13T18:56:20.766Z,-3.59
2022-12-13T18:58:49.067Z,-2.97
2022-12-13T19:01:17.404Z,-2.88
2022-12-13T19:03:46.803Z,-3.32
2022-12-13T19:06:18.113Z,-2.96
2022-12-13T19:08:48.316Z,-2.53
2022-12-13T19:11:15.871Z,-2.43
2022-12-13T19:13:43.419Z,-2.25
2022-12-13T19:16:14.317Z,-2.31
2022-12-13T19:18:42.305Z,-2.25
2022-12-13T19:21:12.940Z,-2.93
2022-12-13T19:23:42.715Z,-3.52
2022-12-13T19:26:12.071Z,-4.06
2022-12-13T19:28:41.309Z,-3.64
2022-12-13T19:31:10.025Z,-4.01
2022-12-13T19:33:37.821Z,-3.12
2022-12-13T19:36:06.299Z,-3.09
2022-12-13T19:38:33.882Z,-2.88
2022-12-13T19:41:07.561Z,-3.24
2022-12-13T19:43:35.215Z,-3.52
2022-12-13T19:46:02.934Z,-3.14
2022-12-13T19:48:30.526Z,-2.95
2022-12-13T19:50:59.996Z,-2.88
2022-12-13T19:53:28.147Z,-2.94
2022-12-13T19:55:56.158Z,-3.04
2022-12-13T19:58:25.734Z,-3.27
2022-12-13T20:00:53.719Z,-3.11
2022-12-13T20:03:21.309Z,-2.66
2022-12-13T20:05:58.160Z,-2.83
2022-12-13T20:08:26.174Z,-3.86
2022-12-13T20:10:58.405Z,-3.75
2022-12-13T20:13:28.205Z,-3.27
2022-12-13T20:15:56.170Z,-3.27
2022-12-13T20:18:24.143Z,-3.35
2022-12-13T20:21:11.213Z,-3.47
2022-12-13T20:23:39.381Z,-2.88
2022-12-13T20:26:09.533Z,-2.77
2022-12-13T20:28:38.467Z,-2.69
2022-12-13T20:31:07.240Z,-2.47
2022-12-13T20:33:35.092Z,-2.30
2022-12-13T20:36:23.756Z,-2.27
2022-12-13T20:38:51.504Z,-2.48
2022-12-13T20:41:19.194Z,-2.83
2022-12-13T20:43:51.544Z,-3.02
2022-12-13T20:46:19.175Z,-3.72
2022-12-13T20:48:48.556Z,-4.05
2022-12-13T20:51:17.581Z,-4.87
2022-12-13T20:53:46.783Z,-4.63
2022-12-13T20:56:16.884Z,-3.80
2022-12-13T20:58:45.415Z,-3.06
2022-12-13T21:01:18.108Z,-3.45
2022-12-13T21:03:46.515Z,-2.84
2022-12-13T21:06:14.648Z,-2.68
2022-12-13T21:08:55.170Z,-3.22
2022-12-13T21:11:28.671Z,-2.87
2022-12-13T21:14:02.453Z,-2.78
2022-12-13T21:16:38.666Z,-2.61
2022-12-13T21:19:06.806Z,-2.50
2022-12-13T21:21:34.625Z,-2.55
2022-12-13T21:24:03.141Z,-2.81
2022-12-13T21:26:35.366Z,-2.71
2022-12-13T21:29:05.229Z,-3.00
2022-12-13T21:31:33.067Z,-3.10
2022-12-13T21:34:03.146Z,-3.24
2022-12-13T21:36:31.954Z,-4.53
2022-12-13T21:39:01.579Z,-4.45
2022-12-13T21:41:29.998Z,-4.46
2022-12-13T21:43:57.688Z,-4.02
2022-12-13T21:46:41.377Z,-4.54
2022-12-13T21:49:17.149Z,-4.18
2022-12-13T21:51:47.854Z,-4.35
2022-12-13T21:54:16.026Z,-4.26
2022-12-13T21:57:01.186Z,-3.94
2022-12-13T21:59:29.578Z,-3.47
2022-12-13T22:02:15.613Z,-3.07
2022-12-13T22:04:46.418Z,-3.20
2022-12-13T22:07:16.417Z,-3.67
2022-12-13T22:09:44.176Z,-3.11
2022-12-13T22:12:19.624Z,-3.75
2022-12-13T22:14:47.263Z,-3.66
2022-12-13T22:17:14.891Z,-3.36
2022-12-13T22:19:42.459Z,-3.51
2022-12-13T22:22:11.661Z,-3.94
2022-12-13T22:24:39.183Z,-3.20
2022-12-13T22:27:07.051Z,-2.97
2022-12-13T22:29:34.586Z,-2.97
2022-12-13T22:32:02.171Z,-3.77
2022-12-13T22:34:29.771Z,-3.79
2022-12-13T22:36:57.415Z,-3.51
2022-12-13T22:39:26.300Z,-3.77
2022-12-13T22:41:53.846Z,-3.84
2022-12-13T22:44:21.745Z,-3.48
2022-12-13T22:46:49.382Z,-2.98
2022-12-13T22:49:16.964Z,-2.68
2022-12-13T22:51:44.814Z,-2.62
2022-12-13T22:54:12.396Z,-3.51
2022-12-13T22:56:41.289Z,-3.27
2022-12-13T22:59:08.893Z,-3.45
2022-12-13T23:01:38.764Z,-4.82
2022-12-13T23:04:07.335Z,-4.83
2022-12-13T23:06:37.437Z,-4.89
2022-12-13T23:09:07.796Z,-4.55
2022-12-13T23:11:53.080Z,-4.61
2022-12-13T23:14:31.155Z,-4.78
2022-12-13T23:16:59.252Z,-4.86
2022-12-13T23:19:49.723Z,-4.88
2022-12-13T23:22:15.367Z,-4.73
2022-12-13T23:24:42.875Z,-4.16
2022-12-13T23:27:10.404Z,-4.12
2022-12-13T23:29:39.487Z,-4.70
2022-12-13T23:32:07.025Z,-4.28
2022-12-13T23:34:34.670Z,-4.02
2022-12-13T23:37:02.181Z,-3.81
2022-12-13T23:39:29.739Z,-3.05
2022-12-13T23:41:57.284Z,-3.15
2022-12-13T23:44:25.015Z,-3.79
2022-12-13T23:46:53.917Z,-4.06
2022-12-13T23:49:21.453Z,-4.57
2022-12-13T23:51:48.965Z,-4.43
2022-12-13T23:54:19.307Z,-3.75
2022-12-13T23:56:46.895Z,-3.22
2022-12-13T23:59:14.479Z,-3.13
